Time;durP1;ratioP1;P1;durP2;ratioP2;P2;SDS_P1;SDS_P2;PMS_P1;PMS_P2;Temp;Humidity;BMP_temperature;BMP_pressure;BME280_temperature;BME280_humidity;BME280_pressure;Samples;Min_cycle;Max_cycle;Signal;HPM_P1;HPM_P2
2021/05/26 00:02:09;;;;;;;3.4;1.5;;;;;;;7.4;100;98839.99;;;;
2021/05/26 00:12:08;;;;;;;4.7;2;;;;;;;7.38;100;98834.13;;;;
2021/05/26 00:22:06;;;;;;;4.9;2.5;;;;;;;7.19;100;98835.86;;;;
2021/05/26 00:32:05;;;;;;;3.7;1.9;;;;;;;7.05;100;98833.81;;;;
2021/05/26 00:42:03;;;;;;;4.9;1.7;;;;;;;6.84;100;98851.09;;;;
2021/05/26 00:52:02;;;;;;;9.2;3.7;;;;;;;6.71;100;98843.66;;;;
2021/05/26 01:02:00;;;;;;;7.3;3;;;;;;;6.7;100;98847.41;;;;
2021/05/26 01:11:59;;;;;;;4.1;2;;;;;;;6.74;100;98853.02;;;;
2021/05/26 01:21:57;;;;;;;3.9;1.9;;;;;;;6.65;100;98847.45;;;;
2021/05/26 01:31:56;;;;;;;3.4;1.4;;;;;;;6.43;100;98868.41;;;;
2021/05/26 01:41:55;;;;;;;3.9;1;;;;;;;6.44;100;98867.34;;;;
2021/05/26 01:51:53;;;;;;;2.3;0.8;;;;;;;6.68;100;98865.64;;;;
2021/05/26 02:01:51;;;;;;;4;1.4;;;;;;;6.7;100;98855.44;;;;
2021/05/26 02:21:48;;;;;;;2.6;1.2;;;;;;;6.81;100;98881.11;;;;
2021/05/26 02:31:47;;;;;;;1.5;0.8;;;;;;;6.88;100;98883.48;;;;
2021/05/26 02:41:45;;;;;;;3.9;1.5;;;;;;;6.81;100;98881.11;;;;
2021/05/26 02:51:44;;;;;;;2.6;1.1;;;;;;;6.83;100;98881.65;;;;
2021/05/26 03:01:43;;;;;;;3.1;0.6;;;;;;;6.82;100;98874.69;;;;
2021/05/26 03:11:41;;;;;;;4.8;1.9;;;;;;;6.8;100;98886.76;;;;
2021/05/26 03:21:40;;;;;;;1.9;0.6;;;;;;;6.87;100;98887.26;;;;
2021/05/26 03:31:38;;;;;;;2.2;1;;;;;;;7.15;100;98899.16;;;;
2021/05/26 03:41:38;;;;;;;2.8;0.8;;;;;;;7.43;100;98890.38;;;;
2021/05/26 03:51:35;;;;;;;1.3;0.8;;;;;;;7.63;100;98911.7;;;;
2021/05/26 04:01:34;;;;;;;2.3;0.8;;;;;;;7.91;100;98910.91;;;;
2021/05/26 04:11:32;;;;;;;2.7;1.1;;;;;;;8.12;100;98914.23;;;;
2021/05/26 04:21:31;;;;;;;3;0.8;;;;;;;8.38;100;98914.8;;;;
2021/05/26 04:31:30;;;;;;;1.8;0.7;;;;;;;8.7;100;98927.61;;;;
2021/05/26 04:41:28;;;;;;;4.3;1.1;;;;;;;9.13;100;98939.18;;;;
2021/05/26 04:51:27;;;;;;;2;0.9;;;;;;;9.7;100;98938.08;;;;
2021/05/26 05:01:26;;;;;;;2.6;0.9;;;;;;;10.17;100;98927.08;;;;
2021/05/26 05:11:25;;;;;;;4;1;;;;;;;10.64;100;98936.73;;;;
2021/05/26 05:21:24;;;;;;;6.8;1.3;;;;;;;10.95;100;98934.23;;;;
2021/05/26 05:31:23;;;;;;;3.1;1.1;;;;;;;11.44;100;98936.95;;;;
2021/05/26 05:41:23;;;;;;;3.5;1.4;;;;;;;11.67;97.54688;98937.76;;;;
2021/05/26 05:51:21;;;;;;;4.1;1.1;;;;;;;11.94;95.08594;98942.3;;;;
2021/05/26 06:01:20;;;;;;;2.4;1.1;;;;;;;12.22;91.04297;98942.95;;;;
2021/05/26 06:11:19;;;;;;;2.4;0.7;;;;;;;12.51;90.93652;98949.46;;;;
2021/05/26 06:21:18;;;;;;;10.8;2;;;;;;;12.69;89.88574;98936.02;;;;
2021/05/26 06:31:20;;;;;;;2;0.6;;;;;;;13.03;87.82227;98931.52;;;;
2021/05/26 06:41:17;;;;;;;2.3;1;;;;;;;13.21;86.04492;98921.55;;;;
2021/05/26 06:51:16;;;;;;;3.9;1.3;;;;;;;13.42;81.62109;98919.83;;;;
2021/05/26 07:01:15;;;;;;;2.1;0.9;;;;;;;13.88;83.28516;98911.03;;;;
2021/05/26 07:11:15;;;;;;;4.5;2.1;;;;;;;14.2;79.77734;98904.27;;;;
2021/05/26 07:21:14;;;;;;;2.6;0.6;;;;;;;14.44;79.1377;98904.55;;;;
2021/05/26 07:31:13;;;;;;;2.7;0.9;;;;;;;14.81;77.1084;98897.54;;;;
2021/05/26 07:41:13;;;;;;;1.3;0.6;;;;;;;15.22;68.40039;98894.09;;;;
2021/05/26 07:51:15;;;;;;;3.7;1.1;;;;;;;15.47;66.74609;98874.09;;;;
2021/05/26 08:01:12;;;;;;;2.9;0.9;;;;;;;16.1;64.53516;98882.97;;;;
2021/05/26 08:11:12;;;;;;;4.2;1.4;;;;;;;16.84;63.80566;98863.66;;;;
2021/05/26 08:21:12;;;;;;;2.3;1.5;;;;;;;16.3;57.24805;98875.86;;;;
2021/05/26 08:31:11;;;;;;;2.5;1;;;;;;;16.4;60.7207;98864.53;;;;
2021/05/26 08:41:11;;;;;;;2.7;0.8;;;;;;;16.24;58.2627;98866.34;;;;
2021/05/26 08:51:12;;;;;;;3;1.2;;;;;;;16.77;59.59766;98865.36;;;;
2021/05/26 09:01:10;;;;;;;3.2;0.9;;;;;;;17.22;57.38965;98857.81;;;;
2021/05/26 09:11:10;;;;;;;4.3;1;;;;;;;16.71;56.75977;98843.03;;;;
2021/05/26 09:21:10;;;;;;;3.1;0.9;;;;;;;17.2;56.18848;98848.41;;;;
2021/05/26 09:31:09;;;;;;;3.1;0.8;;;;;;;17.75;59.16504;98843.02;;;;
2021/05/26 09:41:09;;;;;;;2.6;0.9;;;;;;;17.84;57.48145;98829.23;;;;
2021/05/26 09:51:09;;;;;;;2.3;0.7;;;;;;;18.2;51.06738;98820.81;;;;
2021/05/26 10:01:09;;;;;;;2.3;0.5;;;;;;;17.99;56.83301;98812.88;;;;
2021/05/26 10:11:10;;;;;;;3.9;1.5;;;;;;;18.05;51.24609;98810.67;;;;
2021/05/26 10:21:09;;;;;;;2.2;1;;;;;;;17.79;42.72168;98789.38;;;;
2021/05/26 10:31:10;;;;;;;3.7;1.2;;;;;;;18.42;42.71289;98787.45;;;;
2021/05/26 10:41:09;;;;;;;2.4;0.7;;;;;;;18.55;39.46191;98760.86;;;;
2021/05/26 10:51:09;;;;;;;3.2;0.8;;;;;;;18.87;37.97852;98773.3;;;;
2021/05/26 11:01:09;;;;;;;3;1.1;;;;;;;19.13;40.35059;98744.54;;;;
2021/05/26 11:11:09;;;;;;;3.5;0.9;;;;;;;19.35;39.70703;98736.41;;;;
2021/05/26 11:21:09;;;;;;;4.6;1;;;;;;;19.15;38.35059;98734.06;;;;
2021/05/26 11:31:11;;;;;;;3.9;1.4;;;;;;;19.45;41.13672;98718.66;;;;
2021/05/26 11:41:09;;;;;;;2.5;0.9;;;;;;;19.59;39.78809;98714.25;;;;
2021/05/26 11:51:09;;;;;;;5;0.9;;;;;;;19.88;39.83594;98703.8;;;;
2021/05/26 12:01:10;;;;;;;2.9;1.1;;;;;;;20.58;40.44824;98685.72;;;;
2021/05/26 12:11:10;;;;;;;2.6;1.1;;;;;;;20.55;40.41016;98680.98;;;;
2021/05/26 12:21:09;;;;;;;2.9;1;;;;;;;20.37;38.44629;98665.49;;;;
2021/05/26 12:31:10;;;;;;;7;2;;;;;;;19.71;37.40918;98655.86;;;;
2021/05/26 12:41:10;;;;;;;6.9;1.6;;;;;;;20.22;37.55664;98636.3;;;;
2021/05/26 12:51:10;;;;;;;3;1.1;;;;;;;20.67;36.0293;98624.41;;;;
2021/05/26 13:01:12;;;;;;;2.3;0.7;;;;;;;20.95;36.70801;98617.31;;;;
2021/05/26 13:11:10;;;;;;;2.2;0.7;;;;;;;20.69;37.28125;98603.69;;;;
2021/05/26 13:21:10;;;;;;;4.1;2;;;;;;;21.14;36.00879;98585.44;;;;
2021/05/26 13:31:11;;;;;;;2.3;1;;;;;;;20.85;33.68164;98567.88;;;;
2021/05/26 13:41:11;;;;;;;3.3;1;;;;;;;20.96;33.62012;98561.33;;;;
2021/05/26 13:51:11;;;;;;;2;0.6;;;;;;;21.48;39.4541;98541.09;;;;
2021/05/26 14:01:11;;;;;;;1.9;0.7;;;;;;;21.44;33.46875;98520.28;;;;
2021/05/26 14:11:12;;;;;;;1.8;0.9;;;;;;;21.92;34.75977;98516.31;;;;
2021/05/26 14:21:11;;;;;;;3.4;0.9;;;;;;;22.07;31.97949;98495.98;;;;
2021/05/26 14:31:14;;;;;;;3.1;1.1;;;;;;;22.78;35.40234;98487.98;;;;
2021/05/26 14:41:12;;;;;;;2.7;1.2;;;;;;;22.93;31.10059;98484.09;;;;
2021/05/26 14:51:15;;;;;;;2.6;0.7;;;;;;;21.96;32.05371;98467.72;;;;
2021/05/26 15:01:12;;;;;;;1.6;0.7;;;;;;;22.11;30.95996;98465.8;;;;
2021/05/26 15:11:13;;;;;;;2.4;0.7;;;;;;;22.75;34.21387;98444.81;;;;
2021/05/26 15:21:13;;;;;;;2.6;0.9;;;;;;;24.6;32.21973;98434.11;;;;
2021/05/26 15:31:14;;;;;;;2.3;0.7;;;;;;;27.18;29.64941;98417.3;;;;
2021/05/26 15:41:15;;;;;;;2.2;0.8;;;;;;;29.53;24.05469;98415.31;;;;
2021/05/26 15:51:16;;;;;;;3;1.2;;;;;;;30.08;24.46777;98410.61;;;;
2021/05/26 16:01:20;;;;;;;2.5;1;;;;;;;29.74;22.43848;98403.62;;;;
2021/05/26 16:11:19;;;;;;;4.6;1.2;;;;;;;30.46;22.68945;98403.12;;;;
2021/05/26 16:21:21;;;;;;;3;0.8;;;;;;;30.94;22.72559;98377.69;;;;
2021/05/26 16:31:22;;;;;;;3.1;0.8;;;;;;;30.73;22.97949;98392.3;;;;
2021/05/26 16:41:24;;;;;;;1.8;0.7;;;;;;;31.29;19.36621;98386.08;;;;
2021/05/26 16:51:26;;;;;;;2.3;0.6;;;;;;;29.51;21.63672;98373.3;;;;
2021/05/26 17:01:27;;;;;;;4.1;1.3;;;;;;;28.49;23.52246;98368.36;;;;
2021/05/26 17:11:29;;;;;;;1.7;0.5;;;;;;;25.78;26.85645;98364.47;;;;
2021/05/26 17:21:29;;;;;;;4.8;1.2;;;;;;;23.46;32.44336;98362.28;;;;
2021/05/26 17:31:30;;;;;;;5.5;2.7;;;;;;;22.22;33.82031;98364.26;;;;
2021/05/26 17:41:32;;;;;;;8.5;3.2;;;;;;;22.81;35.01758;98363.55;;;;
2021/05/26 17:51:31;;;;;;;3.3;2;;;;;;;21.06;36.73926;98362.56;;;;
2021/05/26 18:01:31;;;;;;;4.5;1.6;;;;;;;19.53;41.52832;98365.78;;;;
2021/05/26 18:11:31;;;;;;;12.3;4.7;;;;;;;18.22;44.96582;98362.95;;;;
2021/05/26 18:21:31;;;;;;;6.7;1.9;;;;;;;17.13;47.70996;98364.22;;;;
2021/05/26 18:31:30;;;;;;;10.2;5.1;;;;;;;15.92;56.53223;98357.74;;;;
2021/05/26 18:41:30;;;;;;;6.8;3.8;;;;;;;14.93;58.50293;98371.13;;;;
2021/05/26 18:51:29;;;;;;;6.7;3;;;;;;;14.1;61.45703;98379.63;;;;
2021/05/26 19:01:29;;;;;;;6.3;3.6;;;;;;;13.43;69.0332;98390.76;;;;
2021/05/26 19:11:28;;;;;;;7.8;4.6;;;;;;;13.2;67.24609;98389.51;;;;
2021/05/26 19:21:27;;;;;;;8.1;3.6;;;;;;;12.77;69.69141;98395.16;;;;
2021/05/26 19:31:25;;;;;;;11.3;6.1;;;;;;;12.45;72.73926;98383.06;;;;
2021/05/26 19:41:25;;;;;;;9.4;5.1;;;;;;;12.32;70.0498;98372.46;;;;
2021/05/26 19:51:23;;;;;;;10.3;4.5;;;;;;;12.04;71.92383;98351.23;;;;
2021/05/26 20:01:22;;;;;;;16.4;7.9;;;;;;;11.75;76.4502;98345.77;;;;
2021/05/26 20:11:21;;;;;;;14.7;10.2;;;;;;;11.85;72.10742;98350.02;;;;
2021/05/26 20:21:21;;;;;;;13.1;9.4;;;;;;;11.92;73.37695;98345.72;;;;
2021/05/26 20:31:20;;;;;;;18.4;10.9;;;;;;;11.75;74.94336;98334.16;;;;
2021/05/26 20:41:20;;;;;;;11.2;7.4;;;;;;;11.6;75.32617;98306.53;;;;
2021/05/26 20:51:17;;;;;;;13.7;8.6;;;;;;;11.48;75.83789;98311.8;;;;
2021/05/26 21:01:16;;;;;;;13.8;6.2;;;;;;;11.48;76.01855;98336.09;;;;
2021/05/26 21:11:14;;;;;;;12.8;6.5;;;;;;;11.65;75.58398;98329.87;;;;
2021/05/26 21:21:13;;;;;;;10;4.9;;;;;;;11.7;80.16211;98329.69;;;;
2021/05/26 21:31:12;;;;;;;8.8;4.4;;;;;;;11.74;83.5332;98340.67;;;;
2021/05/26 21:41:11;;;;;;;8.7;4.7;;;;;;;12.13;71.33594;98345.02;;;;
2021/05/26 21:51:09;;;;;;;4.4;2.6;;;;;;;12.19;66.34961;98343.72;;;;
2021/05/26 22:01:08;;;;;;;10.6;6.7;;;;;;;11.65;84.48926;98348.77;;;;
2021/05/26 22:11:07;;;;;;;16.1;10.7;;;;;;;11.17;88.7207;98345.45;;;;
2021/05/26 22:21:06;;;;;;;13;7.5;;;;;;;10.74;92.1543;98350.78;;;;
2021/05/26 22:31:05;;;;;;;12.8;7.5;;;;;;;10.29;93.64258;98342.88;;;;
2021/05/26 22:41:03;;;;;;;7.4;3.9;;;;;;;10.22;80.48633;98347.13;;;;
2021/05/26 22:51:02;;;;;;;7.7;3.4;;;;;;;10.1;78.64258;98343.08;;;;
2021/05/26 23:01:01;;;;;;;5;2.6;;;;;;;10.13;73.96875;98342.45;;;;
2021/05/26 23:11:00;;;;;;;4.5;2.7;;;;;;;10.36;70.32715;98337.84;;;;
2021/05/26 23:20:58;;;;;;;5.4;2.8;;;;;;;10.05;80.01855;98337.84;;;;
2021/05/26 23:30:57;;;;;;;6.9;3.1;;;;;;;9.64;83.94434;98342.68;;;;
2021/05/26 23:40:55;;;;;;;5.7;2.9;;;;;;;9.33;87.13867;98361.45;;;;
2021/05/26 23:50:54;;;;;;;6.2;2.8;;;;;;;8.9;92.57324;98347.63;;;;
